Time;durP1;ratioP1;P1;durP2;ratioP2;P2;SDS_P1;SDS_P2;PMS_P1;PMS_P2;Temp;Humidity;BMP_temperature;BMP_pressure;BME280_temperature;BME280_humidity;BME280_pressure;Samples;Min_cycle;Max_cycle;Signal;HPM_P1;HPM_P2
2021/05/23 00:00:18;;;;;;;4.23;1.70;;;;;;;;;;6264450;22;20455;-77
2021/05/23 00:02:44;;;;;;;1.83;1.53;;;;;;;;;;6273356;22;20454;-75
2021/05/23 00:05:13;;;;;;;2.30;1.70;;;;;;;;;;6273038;22;20407;-75
2021/05/23 00:07:44;;;;;;;2.93;1.63;;;;;;;;;;6272159;22;20487;-75
2021/05/23 00:10:11;;;;;;;1.83;1.60;;;;;;;;;;6276175;22;20428;-78
2021/05/23 00:12:39;;;;;;;2.33;1.77;;;;;;;;;;6274108;22;20408;-76
2021/05/23 00:15:07;;;;;;;5.03;1.63;;;;;;;;;;6275116;22;20453;-77
2021/05/23 00:17:34;;;;;;;2.73;1.50;;;;;;;;;;6274066;22;20455;-76
2021/05/23 00:20:00;;;;;;;3.30;1.80;;;;;;;;;;6275895;22;20420;-76
2021/05/23 00:22:27;;;;;;;3.13;1.93;;;;;;;;;;6274822;22;20396;-77
2021/05/23 00:24:54;;;;;;;2.77;1.73;;;;;;;;;;6277148;22;20464;-77
2021/05/23 00:27:21;;;;;;;1.90;1.70;;;;;;;;;;6274967;22;20913;-77
2021/05/23 00:29:49;;;;;;;2.00;1.80;;;;;;;;;;6273276;22;20423;-76
2021/05/23 00:32:17;;;;;;;2.47;2.27;;;;;;;;;;6275692;22;20487;-76
2021/05/23 00:34:43;;;;;;;2.43;1.60;;;;;;;;;;6273336;22;20485;-76
2021/05/23 00:37:10;;;;;;;2.63;1.63;;;;;;;;;;6276538;22;20404;-76
2021/05/23 00:39:37;;;;;;;3.00;1.60;;;;;;;;;;6275492;22;20420;-76
2021/05/23 00:42:04;;;;;;;2.20;1.90;;;;;;;;;;6278885;22;20427;-76
2021/05/23 00:44:31;;;;;;;1.40;1.30;;;;;;;;;;6277649;22;20414;-77
2021/05/23 00:46:59;;;;;;;2.10;1.83;;;;;;;;;;6274451;22;20399;-76
2021/05/23 00:49:26;;;;;;;3.60;1.70;;;;;;;;;;6272352;22;20971;-77
2021/05/23 00:51:52;;;;;;;2.00;1.60;;;;;;;;;;6272514;22;20432;-75
2021/05/23 00:54:19;;;;;;;1.90;1.57;;;;;;;;;;6272613;22;20927;-77
2021/05/23 00:56:46;;;;;;;1.60;1.50;;;;;;;;;;6276212;22;20595;-76
2021/05/23 00:59:13;;;;;;;1.60;1.50;;;;;;;;;;6271810;22;20412;-75
2021/05/23 01:01:55;;;;;;;3.10;1.77;;;;;;;;;;6276859;22;20882;-76
2021/05/23 01:04:23;;;;;;;2.00;1.40;;;;;;;;;;6277181;22;20414;-76
2021/05/23 01:06:50;;;;;;;1.83;1.60;;;;;;;;;;6274735;22;20400;-75
2021/05/23 01:09:17;;;;;;;2.53;1.50;;;;;;;;;;6251830;22;20427;-77
2021/05/23 01:11:59;;;;;;;2.43;1.83;;;;;;;;;;6272489;22;20427;-76
2021/05/23 01:14:40;;;;;;;2.07;1.60;;;;;;;;;;6250706;22;21945;-76
2021/05/23 01:17:10;;;;;;;2.20;1.40;;;;;;;;;;6272453;22;20490;-75
2021/05/23 01:19:49;;;;;;;3.60;2.00;;;;;;;;;;6275135;22;20423;-76
2021/05/23 01:22:18;;;;;;;2.43;1.80;;;;;;;;;;6274324;22;20483;-75
2021/05/23 01:24:50;;;;;;;3.83;1.50;;;;;;;;;;6275110;22;20396;-76
2021/05/23 01:27:26;;;;;;;1.43;1.30;;;;;;;;;;6274356;22;20411;-75
2021/05/23 01:29:53;;;;;;;2.10;1.43;;;;;;;;;;6273278;22;21047;-77
2021/05/23 01:32:20;;;;;;;2.50;1.87;;;;;;;;;;6248884;22;20404;-77
2021/05/23 01:34:47;;;;;;;2.60;1.73;;;;;;;;;;6270587;22;20448;-76
2021/05/23 01:37:16;;;;;;;2.17;1.50;;;;;;;;;;6269530;22;20706;-77
2021/05/23 01:39:43;;;;;;;1.73;1.37;;;;;;;;;;6273807;22;20462;-76
2021/05/23 01:42:11;;;;;;;4.70;1.53;;;;;;;;;;6273119;22;20406;-75
2021/05/23 01:44:39;;;;;;;2.80;1.47;;;;;;;;;;6267518;22;20823;-76
2021/05/23 01:47:06;;;;;;;2.53;1.60;;;;;;;;;;6274269;22;20751;-77
2021/05/23 01:49:33;;;;;;;2.23;1.67;;;;;;;;;;6275287;22;20412;-76
2021/05/23 01:52:00;;;;;;;2.87;1.73;;;;;;;;;;6274346;22;20428;-79
2021/05/23 01:54:26;;;;;;;3.80;1.83;;;;;;;;;;6270201;22;20497;-78
2021/05/23 01:56:53;;;;;;;2.03;1.40;;;;;;;;;;6271195;22;20474;-78
2021/05/23 01:59:20;;;;;;;1.60;1.40;;;;;;;;;;6271580;22;20503;-79
2021/05/23 02:01:48;;;;;;;3.10;1.67;;;;;;;;;;6274100;22;20400;-79
2021/05/23 02:04:15;;;;;;;2.50;2.17;;;;;;;;;;6275711;22;20400;-78
2021/05/23 02:06:41;;;;;;;2.07;1.80;;;;;;;;;;6275853;22;20396;-79
2021/05/23 02:09:08;;;;;;;4.30;1.90;;;;;;;;;;6271971;22;20427;-79
2021/05/23 02:11:37;;;;;;;2.50;1.50;;;;;;;;;;6273637;22;20479;-77
2021/05/23 02:14:04;;;;;;;1.83;1.63;;;;;;;;;;6271251;22;20408;-77
2021/05/23 02:16:32;;;;;;;3.07;1.50;;;;;;;;;;6275043;22;20526;-79
2021/05/23 02:19:00;;;;;;;2.53;1.50;;;;;;;;;;6274417;22;20423;-76
2021/05/23 02:21:27;;;;;;;2.80;1.87;;;;;;;;;;6273164;22;20469;-76
2021/05/23 02:23:54;;;;;;;2.90;1.77;;;;;;;;;;6273374;22;20403;-76
2021/05/23 02:26:22;;;;;;;2.27;1.73;;;;;;;;;;6247017;22;20703;-76
2021/05/23 02:28:49;;;;;;;2.00;1.80;;;;;;;;;;6274527;22;20926;-77
2021/05/23 02:31:16;;;;;;;1.40;1.30;;;;;;;;;;6244521;22;20431;-76
2021/05/23 02:33:42;;;;;;;2.10;1.37;;;;;;;;;;6276052;22;20400;-77
2021/05/23 02:36:10;;;;;;;1.97;1.70;;;;;;;;;;6272139;22;20443;-76
2021/05/23 02:38:37;;;;;;;1.70;1.60;;;;;;;;;;6246304;22;20427;-76
2021/05/23 02:41:04;;;;;;;6.10;2.13;;;;;;;;;;6274930;22;20490;-77
2021/05/23 02:43:31;;;;;;;1.53;1.30;;;;;;;;;;6273224;22;20400;-76
2021/05/23 02:46:01;;;;;;;2.70;1.57;;;;;;;;;;6274936;22;20415;-74
2021/05/23 02:48:27;;;;;;;2.50;1.70;;;;;;;;;;6272662;22;20427;-77
2021/05/23 02:50:55;;;;;;;2.23;1.50;;;;;;;;;;6272048;22;20715;-76
2021/05/23 02:53:23;;;;;;;1.77;1.57;;;;;;;;;;6273915;22;20408;-77
2021/05/23 02:55:50;;;;;;;2.00;1.77;;;;;;;;;;6274841;22;20436;-77
2021/05/23 02:58:17;;;;;;;3.80;2.37;;;;;;;;;;6266593;22;20403;-77
2021/05/23 03:00:44;;;;;;;1.70;1.60;;;;;;;;;;6266328;22;20408;-77
2021/05/23 03:03:12;;;;;;;2.90;1.63;;;;;;;;;;6272506;22;20392;-76
2021/05/23 03:05:39;;;;;;;1.63;1.40;;;;;;;;;;6277541;22;20408;-76
2021/05/23 03:08:06;;;;;;;3.80;1.80;;;;;;;;;;6275786;22;20703;-76
2021/05/23 03:10:35;;;;;;;2.57;1.77;;;;;;;;;;6275837;22;20482;-76
2021/05/23 03:13:03;;;;;;;4.10;1.60;;;;;;;;;;6246211;22;20400;-76
2021/05/23 03:15:30;;;;;;;1.70;1.50;;;;;;;;;;6272551;22;20447;-76
2021/05/23 03:17:57;;;;;;;1.60;1.40;;;;;;;;;;6274801;22;20396;-78
2021/05/23 03:20:27;;;;;;;2.43;1.47;;;;;;;;;;6272535;22;20737;-77
2021/05/23 03:22:55;;;;;;;2.03;1.57;;;;;;;;;;6275455;22;20465;-76
2021/05/23 03:25:22;;;;;;;2.43;1.60;;;;;;;;;;6275577;22;20897;-76
2021/05/23 03:27:50;;;;;;;1.77;1.60;;;;;;;;;;6277357;22;20400;-76
2021/05/23 03:30:19;;;;;;;1.90;1.53;;;;;;;;;;6276773;22;20569;-76
2021/05/23 03:32:46;;;;;;;2.73;1.53;;;;;;;;;;6273332;22;20404;-75
2021/05/23 03:35:14;;;;;;;1.30;1.20;;;;;;;;;;6246162;22;20767;-76
2021/05/23 03:37:40;;;;;;;1.57;1.47;;;;;;;;;;6272805;22;20402;-77
2021/05/23 03:40:09;;;;;;;1.87;1.37;;;;;;;;;;6274956;22;20927;-78
2021/05/23 03:42:36;;;;;;;2.43;1.60;;;;;;;;;;6271182;22;20402;-76
2021/05/23 03:45:03;;;;;;;3.50;1.60;;;;;;;;;;6274326;22;20407;-76
2021/05/23 03:47:30;;;;;;;2.23;1.90;;;;;;;;;;6246163;22;21003;-76
2021/05/23 03:49:57;;;;;;;1.70;1.60;;;;;;;;;;6272496;22;20423;-75
2021/05/23 03:52:24;;;;;;;1.60;1.30;;;;;;;;;;6273137;22;20428;-76
2021/05/23 03:54:51;;;;;;;2.20;1.53;;;;;;;;;;6271923;22;20450;-79
2021/05/23 03:57:18;;;;;;;1.70;1.60;;;;;;;;;;6274324;22;20525;-76
2021/05/23 03:59:44;;;;;;;5.93;1.83;;;;;;;;;;6272641;22;20420;-77
2021/05/23 04:02:12;;;;;;;1.97;1.83;;;;;;;;;;6271711;22;20404;-76
2021/05/23 04:04:48;;;;;;;1.63;1.53;;;;;;;;;;6270010;22;20415;-78
2021/05/23 04:07:16;;;;;;;2.50;1.30;;;;;;;;;;6272281;22;20433;-77
2021/05/23 04:09:43;;;;;;;1.57;1.47;;;;;;;;;;6268433;22;20424;-76
2021/05/23 04:12:10;;;;;;;1.40;1.27;;;;;;;;;;6268706;22;20399;-77
2021/05/23 04:14:37;;;;;;;2.13;1.30;;;;;;;;;;6274543;22;20440;-76
2021/05/23 04:17:04;;;;;;;1.30;1.20;;;;;;;;;;6271733;22;20592;-76
2021/05/23 04:19:32;;;;;;;2.23;1.30;;;;;;;;;;6273000;22;20416;-76
2021/05/23 04:21:59;;;;;;;1.40;1.23;;;;;;;;;;6274135;22;20400;-76
2021/05/23 04:24:25;;;;;;;2.20;1.30;;;;;;;;;;6270729;22;20403;-77
2021/05/23 04:26:52;;;;;;;1.40;1.30;;;;;;;;;;6274659;22;20400;-77
2021/05/23 04:29:19;;;;;;;1.40;1.30;;;;;;;;;;6273967;22;20416;-77
2021/05/23 04:31:46;;;;;;;1.40;1.30;;;;;;;;;;6272728;22;20486;-77
2021/05/23 04:34:13;;;;;;;1.27;1.17;;;;;;;;;;6271485;22;20483;-76
2021/05/23 04:36:40;;;;;;;1.20;1.10;;;;;;;;;;6272702;22;20404;-76
2021/05/23 04:39:07;;;;;;;1.50;1.40;;;;;;;;;;6272742;22;20423;-76
2021/05/23 04:41:34;;;;;;;2.83;1.70;;;;;;;;;;6264351;22;20399;-76
2021/05/23 04:44:01;;;;;;;1.83;1.30;;;;;;;;;;6274429;22;20453;-76
2021/05/23 04:46:28;;;;;;;3.30;1.60;;;;;;;;;;6268859;22;20404;-76
2021/05/23 04:48:55;;;;;;;2.10;1.80;;;;;;;;;;6273110;22;20473;-77
2021/05/23 04:51:22;;;;;;;3.13;1.97;;;;;;;;;;6272463;22;20435;-76
2021/05/23 04:53:50;;;;;;;1.77;1.60;;;;;;;;;;6273684;22;20396;-77
2021/05/23 04:56:17;;;;;;;3.03;1.70;;;;;;;;;;6274762;22;20444;-75
2021/05/23 04:58:44;;;;;;;1.47;1.37;;;;;;;;;;6273613;22;20419;-76
2021/05/23 05:01:11;;;;;;;1.93;1.83;;;;;;;;;;6274940;22;20991;-76
2021/05/23 05:03:37;;;;;;;2.73;1.90;;;;;;;;;;6271124;22;20396;-76
2021/05/23 05:06:05;;;;;;;3.73;1.50;;;;;;;;;;6274609;22;20402;-77
2021/05/23 05:08:35;;;;;;;1.90;1.40;;;;;;;;;;6275861;22;20514;-76
2021/05/23 05:11:03;;;;;;;2.97;1.73;;;;;;;;;;6276898;22;20396;-76
2021/05/23 05:13:29;;;;;;;3.00;1.60;;;;;;;;;;6277869;22;20404;-76
2021/05/23 05:15:56;;;;;;;1.93;1.47;;;;;;;;;;6275234;22;20928;-76
2021/05/23 05:18:23;;;;;;;3.33;1.60;;;;;;;;;;6278482;22;20400;-77
2021/05/23 05:20:52;;;;;;;1.70;1.60;;;;;;;;;;6273844;22;20396;-75
2021/05/23 05:23:19;;;;;;;2.37;1.57;;;;;;;;;;6273825;22;20454;-77
2021/05/23 05:25:46;;;;;;;5.40;1.97;;;;;;;;;;6272964;22;20416;-75
2021/05/23 05:28:13;;;;;;;1.93;1.77;;;;;;;;;;6273815;22;20397;-77
2021/05/23 05:30:40;;;;;;;2.63;2.20;;;;;;;;;;6276276;22;20827;-75
2021/05/23 05:33:07;;;;;;;4.03;2.50;;;;;;;;;;6275986;22;20733;-76
2021/05/23 05:35:34;;;;;;;2.20;1.90;;;;;;;;;;6278365;22;20546;-76
2021/05/23 05:38:01;;;;;;;8.20;2.10;;;;;;;;;;6275705;22;20415;-76
2021/05/23 05:40:28;;;;;;;4.37;2.30;;;;;;;;;;6278275;22;20416;-76
2021/05/23 05:42:54;;;;;;;3.00;1.87;;;;;;;;;;6274432;22;20408;-76
2021/05/23 05:45:22;;;;;;;4.90;2.43;;;;;;;;;;6274263;22;20434;-77
2021/05/23 05:47:49;;;;;;;5.33;1.93;;;;;;;;;;6274789;22;20404;-76
2021/05/23 05:50:16;;;;;;;5.40;2.60;;;;;;;;;;6271925;22;20478;-77
2021/05/23 05:52:43;;;;;;;4.77;3.07;;;;;;;;;;6274641;22;20431;-77
2021/05/23 05:55:10;;;;;;;4.67;2.20;;;;;;;;;;6272505;22;21063;-76
2021/05/23 05:57:37;;;;;;;4.73;2.10;;;;;;;;;;6273897;22;20402;-76
2021/05/23 06:00:05;;;;;;;3.27;1.97;;;;;;;;;;6270877;22;20424;-75
2021/05/23 06:02:32;;;;;;;3.33;2.10;;;;;;;;;;6274021;22;20454;-77
2021/05/23 06:04:59;;;;;;;4.40;2.10;;;;;;;;;;6271933;22;20396;-77
2021/05/23 06:07:26;;;;;;;4.27;2.40;;;;;;;;;;6270383;22;20407;-77
2021/05/23 06:09:53;;;;;;;6.27;2.50;;;;;;;;;;6276790;22;20543;-78
2021/05/23 06:12:20;;;;;;;2.20;1.60;;;;;;;;;;6274302;22;20407;-78
2021/05/23 06:14:47;;;;;;;4.17;2.10;;;;;;;;;;6270673;22;20452;-77
2021/05/23 06:17:14;;;;;;;3.00;1.80;;;;;;;;;;6275098;22;20400;-79
2021/05/23 06:19:41;;;;;;;4.10;1.60;;;;;;;;;;6271359;22;20417;-77
2021/05/23 06:22:08;;;;;;;3.77;2.00;;;;;;;;;;6275136;22;20495;-77
2021/05/23 06:24:35;;;;;;;5.60;2.00;;;;;;;;;;6248527;22;20400;-77
2021/05/23 06:27:02;;;;;;;3.77;1.67;;;;;;;;;;6270719;22;20917;-77
2021/05/23 06:29:29;;;;;;;5.43;1.80;;;;;;;;;;6273110;22;20419;-77
2021/05/23 06:31:55;;;;;;;2.60;2.20;;;;;;;;;;6273783;22;20702;-78
2021/05/23 06:34:22;;;;;;;7.13;1.83;;;;;;;;;;6274460;22;20415;-75
2021/05/23 06:36:50;;;;;;;4.30;1.80;;;;;;;;;;6271324;22;20487;-77
2021/05/23 06:39:17;;;;;;;4.40;2.00;;;;;;;;;;6276158;22;20958;-76
2021/05/23 06:41:43;;;;;;;4.67;1.77;;;;;;;;;;6271974;22;20408;-75
2021/05/23 06:44:10;;;;;;;5.33;1.93;;;;;;;;;;6273121;22;20779;-76
2021/05/23 06:46:37;;;;;;;3.13;2.20;;;;;;;;;;6274442;22;20404;-76
2021/05/23 06:49:04;;;;;;;6.73;2.00;;;;;;;;;;6272944;22;20490;-78
2021/05/23 06:51:31;;;;;;;4.53;1.83;;;;;;;;;;6274188;22;20842;-76
2021/05/23 06:53:59;;;;;;;6.17;1.53;;;;;;;;;;6273696;22;20410;-75
2021/05/23 06:56:25;;;;;;;3.17;2.20;;;;;;;;;;6273014;22;20770;-77
2021/05/23 06:58:52;;;;;;;2.83;1.60;;;;;;;;;;6271531;22;20434;-78
2021/05/23 07:01:19;;;;;;;3.50;1.73;;;;;;;;;;6274445;22;20404;-76
2021/05/23 07:03:47;;;;;;;4.93;1.70;;;;;;;;;;6269949;22;20794;-77
2021/05/23 07:06:14;;;;;;;3.50;1.73;;;;;;;;;;6244734;22;20411;-77
2021/05/23 07:08:40;;;;;;;3.60;1.60;;;;;;;;;;6273547;22;20489;-77
2021/05/23 07:11:08;;;;;;;4.57;2.17;;;;;;;;;;6270988;22;20483;-79
2021/05/23 07:13:36;;;;;;;3.63;1.80;;;;;;;;;;6273278;22;20428;-78
2021/05/23 07:16:03;;;;;;;2.60;1.93;;;;;;;;;;6274457;22;20444;-78
2021/05/23 07:18:30;;;;;;;4.53;1.80;;;;;;;;;;6273536;22;20420;-75
2021/05/23 07:20:59;;;;;;;5.43;2.27;;;;;;;;;;6275119;22;20759;-77
2021/05/23 07:23:26;;;;;;;5.43;1.93;;;;;;;;;;6275672;22;20872;-77
2021/05/23 07:25:53;;;;;;;5.00;1.97;;;;;;;;;;6277440;22;20715;-77
2021/05/23 07:28:21;;;;;;;3.20;1.77;;;;;;;;;;6274867;22;20844;-77
2021/05/23 07:30:48;;;;;;;3.87;1.50;;;;;;;;;;6275799;22;20403;-77
2021/05/23 07:33:15;;;;;;;4.40;1.87;;;;;;;;;;6272735;22;20382;-76
2021/05/23 07:35:42;;;;;;;5.00;2.53;;;;;;;;;;6271733;22;20447;-76
2021/05/23 07:38:09;;;;;;;3.63;1.80;;;;;;;;;;6274379;22;20407;-75
2021/05/23 07:40:36;;;;;;;8.00;1.87;;;;;;;;;;6271260;22;20396;-77
2021/05/23 07:43:03;;;;;;;2.90;1.60;;;;;;;;;;6275416;22;20732;-76
2021/05/23 07:45:31;;;;;;;3.80;1.63;;;;;;;;;;6248472;22;20396;-76
2021/05/23 07:47:58;;;;;;;4.97;1.40;;;;;;;;;;6277259;22;20865;-76
2021/05/23 07:50:25;;;;;;;3.40;1.90;;;;;;;;;;6249818;22;20422;-75
2021/05/23 07:52:52;;;;;;;2.93;1.50;;;;;;;;;;6272881;22;20535;-77
2021/05/23 07:55:19;;;;;;;4.50;1.40;;;;;;;;;;6269853;22;20458;-78
2021/05/23 07:57:46;;;;;;;3.50;1.53;;;;;;;;;;6273074;22;20733;-76
2021/05/23 08:00:14;;;;;;;6.13;2.10;;;;;;;;;;6246645;22;20422;-76
2021/05/23 08:02:42;;;;;;;3.97;1.80;;;;;;;;;;6247618;22;20490;-76
2021/05/23 08:05:09;;;;;;;4.40;1.50;;;;;;;;;;6273261;22;20406;-76
2021/05/23 08:07:36;;;;;;;4.57;1.57;;;;;;;;;;6273778;22;20398;-76
2021/05/23 08:10:03;;;;;;;3.80;1.70;;;;;;;;;;6276916;22;20416;-75
2021/05/23 08:12:30;;;;;;;3.70;1.60;;;;;;;;;;6271854;22;20404;-75
2021/05/23 08:14:57;;;;;;;2.47;1.60;;;;;;;;;;6266900;22;20439;-76
2021/05/23 08:17:24;;;;;;;2.80;1.50;;;;;;;;;;6272238;22;20895;-76
2021/05/23 08:19:51;;;;;;;5.00;1.50;;;;;;;;;;6273131;22;20424;-74
2021/05/23 08:22:18;;;;;;;4.83;1.50;;;;;;;;;;6269911;22;20871;-75
2021/05/23 08:24:45;;;;;;;2.60;1.57;;;;;;;;;;6273877;22;20490;-75
2021/05/23 08:27:12;;;;;;;3.70;1.40;;;;;;;;;;6273654;22;20419;-76
2021/05/23 08:29:39;;;;;;;3.90;1.50;;;;;;;;;;6272107;22;20420;-77
2021/05/23 08:32:06;;;;;;;7.43;1.50;;;;;;;;;;6272079;22;20499;-76
2021/05/23 08:34:33;;;;;;;3.03;1.40;;;;;;;;;;6275750;22;20400;-76
2021/05/23 08:37:01;;;;;;;2.83;1.47;;;;;;;;;;6274366;22;20396;-78
2021/05/23 08:39:28;;;;;;;2.87;1.40;;;;;;;;;;6276145;22;20426;-78
2021/05/23 08:41:55;;;;;;;2.67;1.40;;;;;;;;;;6270151;22;20434;-80
2021/05/23 08:44:23;;;;;;;9.10;2.10;;;;;;;;;;6264333;22;20994;-78
2021/05/23 08:46:51;;;;;;;6.40;2.33;;;;;;;;;;6273289;22;20791;-79
2021/05/23 08:49:21;;;;;;;4.57;1.30;;;;;;;;;;6274516;22;20909;-82
2021/05/23 08:51:48;;;;;;;1.67;1.37;;;;;;;;;;6271755;22;20438;-79
2021/05/23 08:54:16;;;;;;;3.53;1.70;;;;;;;;;;6275095;22;20896;-80
2021/05/23 08:56:43;;;;;;;3.40;1.40;;;;;;;;;;6274929;22;20450;-80
2021/05/23 08:59:10;;;;;;;3.83;1.50;;;;;;;;;;6278718;22;20501;-79
2021/05/23 09:01:38;;;;;;;2.40;1.67;;;;;;;;;;6250184;22;20400;-80
2021/05/23 09:04:05;;;;;;;5.27;1.90;;;;;;;;;;6249973;22;20416;-79
2021/05/23 09:06:34;;;;;;;3.47;1.33;;;;;;;;;;6275922;22;20378;-78
2021/05/23 09:09:04;;;;;;;6.00;1.80;;;;;;;;;;6273686;22;20416;-80
2021/05/23 09:11:32;;;;;;;3.20;1.20;;;;;;;;;;6247719;22;20801;-80
2021/05/23 09:13:59;;;;;;;2.20;1.80;;;;;;;;;;6274071;22;20431;-79
2021/05/23 09:16:26;;;;;;;4.33;1.60;;;;;;;;;;6270886;22;20495;-78
2021/05/23 09:18:55;;;;;;;3.20;1.50;;;;;;;;;;6273077;22;20427;-81
2021/05/23 09:21:22;;;;;;;1.90;1.40;;;;;;;;;;6277939;22;20408;-78
2021/05/23 09:23:50;;;;;;;2.87;1.47;;;;;;;;;;6248933;22;20482;-80
2021/05/23 09:26:19;;;;;;;1.87;1.40;;;;;;;;;;6278280;22;20490;-81
2021/05/23 09:28:47;;;;;;;1.90;1.53;;;;;;;;;;6274378;22;20538;-81
2021/05/23 09:31:15;;;;;;;4.73;1.40;;;;;;;;;;6273136;22;20411;-80
2021/05/23 09:33:43;;;;;;;2.07;1.27;;;;;;;;;;6274545;22;20487;-78
2021/05/23 09:36:10;;;;;;;2.87;1.30;;;;;;;;;;6273027;22;20455;-79
2021/05/23 09:38:37;;;;;;;4.10;1.70;;;;;;;;;;6276136;22;20581;-78
2021/05/23 09:41:04;;;;;;;4.00;1.03;;;;;;;;;;6275981;22;20400;-80
2021/05/23 09:43:31;;;;;;;2.80;1.30;;;;;;;;;;6278061;22;20718;-78
2021/05/23 09:45:58;;;;;;;1.87;1.47;;;;;;;;;;6276348;22;20400;-80
2021/05/23 09:48:26;;;;;;;3.10;1.03;;;;;;;;;;6274053;22;20416;-80
2021/05/23 09:50:54;;;;;;;2.27;1.17;;;;;;;;;;6273134;22;20461;-82
2021/05/23 09:53:22;;;;;;;3.33;1.47;;;;;;;;;;6243280;22;20416;-79
2021/05/23 09:55:54;;;;;;;3.73;1.50;;;;;;;;;;6247574;22;20440;-80
2021/05/23 09:58:21;;;;;;;1.80;1.33;;;;;;;;;;6275465;22;20450;-80
2021/05/23 10:00:48;;;;;;;2.30;1.30;;;;;;;;;;6275072;22;20886;-79
2021/05/23 10:03:22;;;;;;;1.83;1.20;;;;;;;;;;6269796;22;21237;-80
2021/05/23 10:05:49;;;;;;;3.33;1.70;;;;;;;;;;6243617;22;20479;-79
2021/05/23 10:08:17;;;;;;;3.57;1.40;;;;;;;;;;6271241;22;20807;-78
2021/05/23 10:10:44;;;;;;;2.40;1.47;;;;;;;;;;6272629;22;20545;-78
2021/05/23 10:13:11;;;;;;;3.00;1.20;;;;;;;;;;6241144;22;20457;-82
2021/05/23 10:15:39;;;;;;;3.03;1.83;;;;;;;;;;6274769;22;20443;-82
2021/05/23 10:18:06;;;;;;;2.50;1.37;;;;;;;;;;6273352;22;20419;-77
2021/05/23 10:20:34;;;;;;;1.50;1.20;;;;;;;;;;6270366;22;20408;-81
2021/05/23 10:23:04;;;;;;;3.70;1.30;;;;;;;;;;6274791;22;20893;-79
2021/05/23 10:25:32;;;;;;;2.27;1.37;;;;;;;;;;6244317;22;20463;-77
2021/05/23 10:28:01;;;;;;;3.83;1.53;;;;;;;;;;6274905;22;20683;-79
2021/05/23 10:30:28;;;;;;;2.93;1.40;;;;;;;;;;6247659;22;20423;-81
2021/05/23 10:32:54;;;;;;;1.90;1.33;;;;;;;;;;6272167;22;20962;-79
2021/05/23 10:35:22;;;;;;;3.20;1.50;;;;;;;;;;6272922;22;20440;-79
2021/05/23 10:37:51;;;;;;;4.30;1.83;;;;;;;;;;6272853;22;20410;-79
2021/05/23 10:40:20;;;;;;;3.30;1.60;;;;;;;;;;6274535;22;20848;-80
2021/05/23 10:42:49;;;;;;;2.47;1.60;;;;;;;;;;6247788;22;20410;-80
2021/05/23 10:45:22;;;;;;;2.43;1.50;;;;;;;;;;6273349;22;21054;-80
2021/05/23 10:47:48;;;;;;;2.00;1.30;;;;;;;;;;6245841;22;20432;-79
2021/05/23 10:50:15;;;;;;;3.13;1.50;;;;;;;;;;6267961;22;21146;-77
2021/05/23 10:52:44;;;;;;;1.73;1.30;;;;;;;;;;6272646;22;20753;-79
2021/05/23 10:55:13;;;;;;;1.93;1.40;;;;;;;;;;6273369;22;20417;-78
2021/05/23 10:57:44;;;;;;;2.83;1.57;;;;;;;;;;6273138;22;20410;-81
2021/05/23 11:00:15;;;;;;;2.37;1.50;;;;;;;;;;6273524;22;20505;-78
2021/05/23 11:02:43;;;;;;;1.87;1.30;;;;;;;;;;6273336;22;20431;-81
2021/05/23 11:05:11;;;;;;;1.73;1.50;;;;;;;;;;6246041;22;20386;-78
2021/05/23 11:07:38;;;;;;;1.93;1.30;;;;;;;;;;6242045;22;20405;-80
2021/05/23 11:10:20;;;;;;;3.43;2.07;;;;;;;;;;6266661;22;20427;-78
2021/05/23 11:12:49;;;;;;;4.27;2.03;;;;;;;;;;6250376;22;20449;-80
2021/05/23 11:15:17;;;;;;;2.57;1.30;;;;;;;;;;6247263;22;20496;-79
2021/05/23 11:17:44;;;;;;;1.50;1.20;;;;;;;;;;6275778;22;20396;-76
2021/05/23 11:20:19;;;;;;;1.70;1.30;;;;;;;;;;6277009;22;20430;-80
2021/05/23 11:22:46;;;;;;;1.77;1.13;;;;;;;;;;6245916;22;21029;-78
2021/05/23 11:25:15;;;;;;;1.70;1.10;;;;;;;;;;6245981;22;20400;-79
2021/05/23 11:27:42;;;;;;;3.23;1.50;;;;;;;;;;6273074;22;20396;-78
2021/05/23 11:30:11;;;;;;;2.50;1.57;;;;;;;;;;6247715;22;20420;-78
2021/05/23 11:32:38;;;;;;;8.30;2.40;;;;;;;;;;6245586;22;20432;-79
2021/05/23 11:35:05;;;;;;;3.23;1.50;;;;;;;;;;6275627;22;20396;-81
2021/05/23 11:37:41;;;;;;;3.10;1.40;;;;;;;;;;6275667;22;20375;-79
2021/05/23 11:40:09;;;;;;;3.33;1.30;;;;;;;;;;6274060;22;20423;-79
2021/05/23 11:42:40;;;;;;;1.63;1.23;;;;;;;;;;6277076;22;20490;-76
2021/05/23 11:45:08;;;;;;;3.60;1.47;;;;;;;;;;6271894;22;20464;-79
2021/05/23 11:47:45;;;;;;;2.57;1.40;;;;;;;;;;6272459;22;20406;-77
2021/05/23 11:50:22;;;;;;;1.93;1.33;;;;;;;;;;6272962;22;20430;-77
2021/05/23 11:52:54;;;;;;;2.63;1.30;;;;;;;;;;6273390;22;20507;-79
2021/05/23 11:55:21;;;;;;;3.13;1.23;;;;;;;;;;6273146;22;20500;-79
2021/05/23 11:57:50;;;;;;;3.33;1.30;;;;;;;;;;6267053;22;20457;-80
2021/05/23 12:00:18;;;;;;;3.60;1.50;;;;;;;;;;6269547;22;20416;-79
2021/05/23 12:02:47;;;;;;;1.53;1.40;;;;;;;;;;6272443;22;20433;-79
2021/05/23 12:05:14;;;;;;;2.30;1.30;;;;;;;;;;6246667;22;20768;-77
2021/05/23 12:07:43;;;;;;;1.40;1.20;;;;;;;;;;6276259;22;20430;-78
2021/05/23 12:10:10;;;;;;;2.80;1.40;;;;;;;;;;6275637;22;20499;-79
2021/05/23 12:12:37;;;;;;;2.73;1.30;;;;;;;;;;6277480;22;20399;-78
2021/05/23 12:15:05;;;;;;;2.50;1.27;;;;;;;;;;6276066;22;20486;-79
2021/05/23 12:17:31;;;;;;;2.67;1.40;;;;;;;;;;6272294;22;20499;-79
2021/05/23 12:19:59;;;;;;;4.23;1.60;;;;;;;;;;6274635;22;20440;-78
2021/05/23 12:22:26;;;;;;;2.10;1.50;;;;;;;;;;6275507;22;20407;-80
2021/05/23 12:24:54;;;;;;;1.70;1.20;;;;;;;;;;6247990;22;20494;-80
2021/05/23 12:27:28;;;;;;;2.70;1.37;;;;;;;;;;6276391;22;20481;-79
2021/05/23 12:30:06;;;;;;;2.27;1.30;;;;;;;;;;6250007;22;20419;-80
2021/05/23 12:32:40;;;;;;;3.27;1.47;;;;;;;;;;6279002;22;20431;-79
2021/05/23 12:35:12;;;;;;;1.97;1.30;;;;;;;;;;6275376;22;20400;-80
2021/05/23 12:37:40;;;;;;;1.40;1.30;;;;;;;;;;6278808;22;20451;-81
2021/05/23 12:40:14;;;;;;;1.40;1.07;;;;;;;;;;6272772;22;20415;-78
2021/05/23 12:42:41;;;;;;;2.53;1.40;;;;;;;;;;6274710;22;20802;-78
2021/05/23 12:45:08;;;;;;;2.40;1.67;;;;;;;;;;6274681;22;20400;-82
2021/05/23 12:47:35;;;;;;;2.80;1.40;;;;;;;;;;6268558;22;20398;-82
2021/05/23 12:50:02;;;;;;;1.80;1.37;;;;;;;;;;6275615;22;20420;-81
2021/05/23 12:52:30;;;;;;;2.93;1.30;;;;;;;;;;6277344;22;21610;-78
2021/05/23 12:54:58;;;;;;;2.00;1.40;;;;;;;;;;6278519;22;20439;-80
2021/05/23 12:57:25;;;;;;;4.27;1.40;;;;;;;;;;6278119;22;20764;-79
2021/05/23 12:59:53;;;;;;;3.50;1.30;;;;;;;;;;6271563;22;20416;-81
2021/05/23 13:02:23;;;;;;;2.90;1.50;;;;;;;;;;6273465;22;21073;-81
2021/05/23 13:05:00;;;;;;;2.30;1.30;;;;;;;;;;6243436;22;20453;-79
2021/05/23 13:07:37;;;;;;;2.17;1.30;;;;;;;;;;6275730;22;20478;-79
2021/05/23 13:10:11;;;;;;;2.83;1.40;;;;;;;;;;6275502;22;20454;-84
2021/05/23 13:12:38;;;;;;;2.60;1.30;;;;;;;;;;6269158;22;20395;-81
2021/05/23 13:15:07;;;;;;;3.20;1.83;;;;;;;;;;6270777;22;20438;-83
2021/05/23 13:17:37;;;;;;;1.87;1.30;;;;;;;;;;6241725;22;20466;-82
2021/05/23 13:20:05;;;;;;;3.37;1.70;;;;;;;;;;6269449;22;20428;-81
2021/05/23 13:22:33;;;;;;;2.87;1.37;;;;;;;;;;6274654;22;20400;-84
2021/05/23 13:25:02;;;;;;;1.20;1.10;;;;;;;;;;6275110;22;20404;-84
2021/05/23 13:27:30;;;;;;;1.90;1.30;;;;;;;;;;6238718;22;20400;-82
2021/05/23 13:29:59;;;;;;;1.83;1.03;;;;;;;;;;6275488;22;20420;-83
2021/05/23 13:32:26;;;;;;;2.33;1.20;;;;;;;;;;6273128;22;20400;-86
2021/05/23 13:34:52;;;;;;;2.93;1.60;;;;;;;;;;6272395;22;20409;-79
2021/05/23 13:37:19;;;;;;;2.37;1.40;;;;;;;;;;6275491;22;20443;-82
2021/05/23 13:39:46;;;;;;;3.47;1.40;;;;;;;;;;6273974;22;20423;-83
2021/05/23 13:42:13;;;;;;;2.00;1.20;;;;;;;;;;6275595;22;20484;-82
2021/05/23 13:44:41;;;;;;;2.30;1.17;;;;;;;;;;6273389;22;20400;-82
2021/05/23 13:47:07;;;;;;;1.63;1.20;;;;;;;;;;6272834;22;20400;-79
2021/05/23 13:49:34;;;;;;;3.30;1.20;;;;;;;;;;6274032;22;20473;-84
2021/05/23 13:52:01;;;;;;;2.33;1.60;;;;;;;;;;6269633;22;20510;-81
2021/05/23 13:54:29;;;;;;;3.10;1.70;;;;;;;;;;6270142;22;20495;-81
2021/05/23 13:56:56;;;;;;;2.50;1.30;;;;;;;;;;6272469;22;20436;-82
2021/05/23 13:59:23;;;;;;;2.90;1.30;;;;;;;;;;6276993;22;20510;-84
2021/05/23 14:01:51;;;;;;;4.10;1.40;;;;;;;;;;6268888;22;20404;-83
2021/05/23 14:04:18;;;;;;;6.00;1.27;;;;;;;;;;6273348;22;20396;-81
2021/05/23 14:06:46;;;;;;;2.30;1.30;;;;;;;;;;6273924;22;20511;-83
2021/05/23 14:09:13;;;;;;;1.50;1.10;;;;;;;;;;6238853;22;21002;-83
2021/05/23 14:11:39;;;;;;;3.43;1.53;;;;;;;;;;6275265;22;20454;-81
2021/05/23 14:14:07;;;;;;;4.73;1.37;;;;;;;;;;6271951;22;20490;-82
2021/05/23 14:16:34;;;;;;;1.73;1.00;;;;;;;;;;6269385;22;20452;-82
2021/05/23 14:19:01;;;;;;;1.30;1.20;;;;;;;;;;6264950;22;20921;-84
2021/05/23 14:21:28;;;;;;;1.67;1.10;;;;;;;;;;6274498;22;20409;-80
2021/05/23 14:23:55;;;;;;;2.23;1.17;;;;;;;;;;6274831;22;20396;-82
2021/05/23 14:26:23;;;;;;;5.00;1.40;;;;;;;;;;6269237;22;20406;-83
2021/05/23 14:28:50;;;;;;;2.13;1.30;;;;;;;;;;6276306;22;20707;-81
2021/05/23 14:31:20;;;;;;;2.83;1.10;;;;;;;;;;6273800;22;21239;-79
2021/05/23 14:33:47;;;;;;;1.50;1.20;;;;;;;;;;6269362;22;20453;-82
2021/05/23 14:36:15;;;;;;;2.03;1.23;;;;;;;;;;6247121;22;20435;-82
2021/05/23 14:38:42;;;;;;;1.20;1.10;;;;;;;;;;6271138;22;20431;-81
2021/05/23 14:41:09;;;;;;;1.50;1.23;;;;;;;;;;6265032;22;20407;-81
2021/05/23 14:43:38;;;;;;;2.47;1.20;;;;;;;;;;6266562;22;20465;-81
2021/05/23 14:46:05;;;;;;;1.57;0.93;;;;;;;;;;6272069;22;20457;-81